This is the latest recevied weather packets stored in our database for station/object WX6HNX-6. If no packets are shown the sender has not sent any weather packets the latest 10 day(s).
| Time | Temp. | Humidity | Pressure | Rain* | Wind** | Luminosity | Snow |
|---|---|---|---|---|---|---|---|
| 1777842336 | 24.44° C | 38% | 1011.1 hPa | 0 mm | - | - | - |
| 1777842036 | 24.44° C | 38% | 1011.2 hPa | 0 mm | - | - | - |
| 1777841735 | 25° C | 37% | 1011.2 hPa | 0 mm | - | - | - |
| 1777841436 | 25.56° C | 37% | 1011.2 hPa | 0 mm | - | - | - |
| 1777841135 | 25.56° C | 36% | 1011.3 hPa | 0 mm | - | - | - |
| 1777840835 | 25.56° C | 36% | 1011.3 hPa | 0 mm | - | - | - |
| 1777840535 | 25.56° C | 36% | 1011.3 hPa | 0 mm | - | - | - |
| 1777840219 | 25.56° C | 36% | 1011.4 hPa | 0 mm | - | - | - |
| 1777839919 | 25.56° C | 37% | 1011.4 hPa | 0 mm | - | - | - |
| 1777839619 | 25° C | 37% | 1011.4 hPa | 0 mm | - | - | - |
| 1777839319 | 25° C | 38% | 1011.5 hPa | 0 mm | - | - | - |
| 1777839019 | 25° C | 37% | 1011.6 hPa | 0 mm | - | - | - |
| 1777838719 | 25° C | 37% | 1011.7 hPa | 0 mm | - | - | - |
| 1777838270 | 23.89° C | 40% | 1011.6 hPa | 0 mm | - | - | - |
| 1777837971 | 22.78° C | 42% | 1011.7 hPa | 0 mm | - | - | - |
| 1777837670 | 22.78° C | 41% | 1011.7 hPa | 0 mm | - | - | - |
| 1777837249 | 23.89° C | 40% | 1011.8 hPa | 0 mm | - | - | - |
| 1777836950 | 24.44° C | 37% | 1011.9 hPa | 0 mm | - | - | - |
| 1777836349 | 24.44° C | 38% | 1012.1 hPa | 0 mm | - | - | - |
| 1777836049 | 24.44° C | 39% | 1012.1 hPa | 0 mm | - | - | - |
| 1777835750 | 24.44° C | 39% | 1012.2 hPa | 0 mm | - | - | - |
| 1777835449 | 23.89° C | 39% | 1012.2 hPa | 0 mm | - | - | - |
| 1777835149 | 23.89° C | 40% | 1012.2 hPa | 0 mm | - | - | - |
| 1777834849 | 23.89° C | 39% | 1012.3 hPa | 0 mm | - | - | - |
| 1777834249 | 23.33° C | 43% | 1012.4 hPa | 0 mm | - | - | - |
* Rain latest hour (hover to see other rain measurements)
** Current wind speed in m/s (hover to see current wind gust speed)